Time;durP1;ratioP1;P1;durP2;ratioP2;P2;SDS_P1;SDS_P2;PMS_P1;PMS_P2;Temp;Humidity;BMP_temperature;BMP_pressure;BME280_temperature;BME280_humidity;BME280_pressure;Samples;Min_cycle;Max_cycle;Signal;HPM_P1;HPM_P2
2023/05/07 04:25:08;;;;;;;5.57;3.67;;;;;;;14.64;87.71;101673.22;4971366;28;121721;-30
2023/05/07 04:27:34;;;;;;;7.65;3.83;;;;;;;14.63;87.36;101677.78;4971141;28;96822;-30
2023/05/07 04:30:00;;;;;;;5.93;3.72;;;;;;;14.61;87.72;101670.66;4970621;28;101279;-29
2023/05/07 04:32:26;;;;;;;6.13;3.78;;;;;;;14.60;87.47;101674.38;4972549;28;99482;-30
2023/05/07 04:34:51;;;;;;;7.22;4.20;;;;;;;14.58;87.97;101669.00;4972191;28;96619;-30
2023/05/07 04:37:16;;;;;;;5.97;3.92;;;;;;;14.58;87.66;101669.00;4972830;28;96890;-29
2023/05/07 04:39:42;;;;;;;6.80;3.25;;;;;;;14.59;87.64;101672.63;4971684;28;99385;-29
2023/05/07 04:42:08;;;;;;;6.35;3.92;;;;;;;14.59;87.50;101665.31;4971918;28;99480;-30
2023/05/07 04:44:34;;;;;;;5.30;3.50;;;;;;;14.59;87.88;101670.78;4972248;28;96618;-31
2023/05/07 04:47:00;;;;;;;8.45;3.78;;;;;;;14.60;87.42;101677.09;4970860;28;96949;-29
2023/05/07 04:49:25;;;;;;;6.22;3.75;;;;;;;14.63;87.81;101680.50;4972465;28;98896;-30
2023/05/07 04:51:51;;;;;;;5.50;3.35;;;;;;;14.66;87.35;101679.44;4975918;28;97226;-29
2023/05/07 04:54:16;;;;;;;5.82;3.47;;;;;;;14.65;88.23;101683.13;4975646;28;96559;-29
2023/05/07 04:56:41;;;;;;;5.22;3.78;;;;;;;14.64;87.92;101681.38;4976013;28;100322;-29
2023/05/07 04:59:07;;;;;;;5.47;3.85;;;;;;;14.67;87.48;101677.59;4975389;28;102834;-29
2023/05/07 05:01:32;;;;;;;6.50;3.63;;;;;;;14.68;87.31;101682.91;4975158;28;101427;-29
2023/05/07 05:03:57;;;;;;;6.30;3.92;;;;;;;14.68;87.76;101682.03;4975261;28;96654;-30
2023/05/07 05:06:23;;;;;;;5.03;3.20;;;;;;;14.72;87.49;101695.38;4974124;28;97013;-30
2023/05/07 05:08:48;;;;;;;5.00;3.60;;;;;;;14.72;87.10;101691.78;4975585;28;97926;-30
2023/05/07 05:11:14;;;;;;;6.65;3.78;;;;;;;14.72;87.19;101689.06;4975556;28;97815;-31
2023/05/07 05:13:40;;;;;;;5.53;3.55;;;;;;;14.73;87.41;101686.25;4973861;28;96579;-29
2023/05/07 05:16:05;;;;;;;6.75;3.58;;;;;;;14.74;87.28;101695.28;4975254;28;96840;-30
2023/05/07 05:18:31;;;;;;;5.30;3.55;;;;;;;14.73;87.35;101698.97;4974973;28;99481;-29
2023/05/07 05:20:56;;;;;;;8.38;3.95;;;;;;;14.75;87.30;101697.91;4975172;28;102701;-30
2023/05/07 05:23:21;;;;;;;8.52;4.22;;;;;;;14.78;87.15;101707.75;4974967;28;96807;-29
2023/05/07 05:25:47;;;;;;;5.43;3.80;;;;;;;14.75;87.35;101700.63;4975058;28;96859;-30
2023/05/07 05:28:12;;;;;;;7.65;3.88;;;;;;;14.76;87.51;101702.41;4974445;28;99275;-29
2023/05/07 05:30:38;;;;;;;6.88;4.00;;;;;;;14.80;87.72;101713.97;4974553;28;99333;-32
2023/05/07 05:33:03;;;;;;;5.43;3.67;;;;;;;14.83;87.60;101717.38;4974814;28;96588;-30
2023/05/07 05:35:29;;;;;;;7.90;3.90;;;;;;;14.78;87.13;101714.09;4975066;28;96950;-30
2023/05/07 05:37:55;;;;;;;7.57;3.67;;;;;;;14.76;88.16;101716.03;4974933;28;97853;-30
2023/05/07 05:40:20;;;;;;;8.63;3.92;;;;;;;14.78;88.53;101719.53;4974757;28;104236;-31
2023/05/07 05:42:45;;;;;;;5.95;3.72;;;;;;;14.77;88.82;101720.50;4975061;28;96637;-31
2023/05/07 05:45:11;;;;;;;5.57;3.75;;;;;;;14.84;88.36;101723.72;4974976;28;101930;-32
2023/05/07 05:47:37;;;;;;;6.88;3.95;;;;;;;14.85;88.33;101731.81;4974800;28;97922;-29
2023/05/07 05:50:04;;;;;;;6.68;3.95;;;;;;;14.86;88.40;101724.47;4973379;28;100560;-29
2023/05/07 05:52:30;;;;;;;5.50;3.55;;;;;;;14.80;89.40;101728.50;4972974;28;97412;-31
2023/05/07 05:54:55;;;;;;;5.43;3.60;;;;;;;14.81;88.56;101730.25;4974812;28;96812;-29
2023/05/07 05:57:20;;;;;;;4.70;3.20;;;;;;;14.84;88.39;101742.81;4974816;28;98089;-30
2023/05/07 05:59:47;;;;;;;5.13;3.28;;;;;;;14.81;88.42;101743.00;4974617;28;97261;-30
2023/05/07 06:02:12;;;;;;;5.95;4.25;;;;;;;14.82;88.46;101745.63;4972123;28;96622;-34
2023/05/07 06:04:37;;;;;;;7.43;4.32;;;;;;;14.86;88.09;101747.19;4974643;28;96844;-30
2023/05/07 06:07:03;;;;;;;6.45;4.07;;;;;;;14.87;88.30;101742.59;4974668;28;102776;-29
2023/05/07 06:09:28;;;;;;;9.35;5.50;;;;;;;14.85;89.32;101739.97;4974775;28;99014;-29
2023/05/07 06:11:53;;;;;;;5.80;4.05;;;;;;;14.79;90.73;101742.22;4972495;28;112577;-29
2023/05/07 06:14:18;;;;;;;6.40;3.92;;;;;;;14.78;89.24;101744.09;4974472;28;96837;-29
2023/05/07 06:16:44;;;;;;;5.97;3.85;;;;;;;14.79;89.95;101744.97;4973277;28;112897;-31
2023/05/07 06:19:09;;;;;;;8.00;5.10;;;;;;;14.80;90.53;101739.41;4974126;28;99153;-29
2023/05/07 06:21:35;;;;;;;7.20;4.60;;;;;;;14.78;90.39;101741.34;4974328;28;96674;-29
2023/05/07 06:24:00;;;;;;;7.15;4.45;;;;;;;14.76;90.12;101743.31;4973798;28;96827;-29
2023/05/07 06:26:25;;;;;;;6.60;4.28;;;;;;;14.79;91.15;101745.81;4973727;28;110115;-29
2023/05/07 06:28:51;;;;;;;7.40;4.43;;;;;;;14.79;90.84;101747.69;4974519;28;97041;-29
2023/05/07 06:31:21;;;;;;;6.85;4.38;;;;;;;14.78;90.67;101737.75;4974105;28;97265;-29
2023/05/07 06:33:48;;;;;;;7.90;4.68;;;;;;;14.79;90.14;101747.69;4974499;28;96759;-29
2023/05/07 06:36:13;;;;;;;6.80;4.63;;;;;;;14.79;91.13;101755.88;4972535;28;101269;-31
2023/05/07 06:38:39;;;;;;;8.38;4.43;;;;;;;14.80;90.61;101747.59;4972192;28;113848;-31
2023/05/07 06:41:06;;;;;;;5.38;4.10;;;;;;;14.83;91.52;101746.50;4973347;28;97079;-30
2023/05/07 06:43:32;;;;;;;8.10;4.68;;;;;;;14.84;90.68;101738.22;4972698;28;96995;-30
2023/05/07 06:45:57;;;;;;;6.13;4.28;;;;;;;14.88;91.81;101735.31;4972366;28;100884;-32
2023/05/07 06:48:22;;;;;;;7.97;4.40;;;;;;;14.98;90.74;101734.59;4973563;28;98827;-29
2023/05/07 06:50:48;;;;;;;8.73;5.20;;;;;;;15.15;90.46;101735.31;4974108;28;96402;-29
2023/05/07 06:53:13;;;;;;;10.82;5.53;;;;;;;15.27;90.68;101735.38;4973856;28;96916;-30
2023/05/07 06:55:38;;;;;;;7.55;4.88;;;;;;;15.37;90.18;101738.34;4974017;28;97298;-29
2023/05/07 06:58:04;;;;;;;8.35;5.05;;;;;;;15.48;90.46;101730.31;4973701;28;111114;-29
2023/05/07 07:00:30;;;;;;;6.50;4.97;;;;;;;15.71;90.76;101739.72;4973478;28;96810;-29
2023/05/07 07:02:56;;;;;;;8.85;5.55;;;;;;;15.77;88.93;101732.94;4973831;28;96854;-29
2023/05/07 07:05:21;;;;;;;10.25;5.75;;;;;;;15.70;89.54;101732.47;4972870;28;99156;-31
2023/05/07 07:07:52;;;;;;;11.65;6.20;;;;;;;15.68;89.48;101736.25;4972471;28;121206;-31
2023/05/07 07:10:21;;;;;;;9.32;5.47;;;;;;;15.68;89.33;101737.16;4973502;28;96599;-29
2023/05/07 07:12:46;;;;;;;8.57;5.13;;;;;;;15.70;89.49;101742.53;4971895;28;96873;-29
2023/05/07 07:15:13;;;;;;;6.82;4.78;;;;;;;15.68;90.21;101742.63;4972747;28;108652;-29
2023/05/07 07:17:38;;;;;;;8.35;5.53;;;;;;;15.76;89.68;101746.72;4971918;28;100769;-30
2023/05/07 07:20:05;;;;;;;9.25;5.13;;;;;;;15.76;89.91;101752.19;4973462;28;96521;-29
2023/05/07 07:22:30;;;;;;;9.13;5.25;;;;;;;15.78;89.19;101740.16;4973927;28;96954;-29
2023/05/07 07:24:55;;;;;;;9.40;5.55;;;;;;;15.81;89.65;101747.28;4972433;28;106530;-29
2023/05/07 07:27:20;;;;;;;8.77;5.57;;;;;;;15.86;89.60;101750.56;4972867;28;105448;-29
2023/05/07 07:29:46;;;;;;;10.38;5.45;;;;;;;15.90;90.73;101744.78;4972670;28;100898;-29
2023/05/07 07:32:11;;;;;;;7.93;5.38;;;;;;;16.11;90.79;101747.84;4973094;28;96850;-31
2023/05/07 07:34:36;;;;;;;8.32;5.22;;;;;;;16.28;90.10;101759.44;4973131;28;97930;-29
2023/05/07 07:37:06;;;;;;;9.60;5.93;;;;;;;16.30;89.35;101755.63;4972442;28;114408;-29
2023/05/07 07:39:34;;;;;;;10.68;6.05;;;;;;;16.37;89.98;101755.19;4973017;28;96466;-29
2023/05/07 07:41:59;;;;;;;8.52;5.45;;;;;;;16.29;89.67;101753.00;4971647;28;96913;-30
2023/05/07 07:44:25;;;;;;;12.70;6.35;;;;;;;16.32;89.33;101753.63;4972852;28;97995;-30
2023/05/07 07:46:51;;;;;;;7.93;5.53;;;;;;;16.30;88.70;101752.91;4973183;28;99175;-29
2023/05/07 07:49:17;;;;;;;9.65;5.47;;;;;;;16.35;89.07;101756.19;4971596;28;96591;-30
2023/05/07 07:51:42;;;;;;;9.10;6.57;;;;;;;16.42;87.77;101762.09;4973418;28;96805;-29
2023/05/07 07:54:08;;;;;;;8.77;5.82;;;;;;;16.40;90.06;101760.41;4972034;28;99310;-29
2023/05/07 07:56:33;;;;;;;9.90;5.65;;;;;;;16.40;88.84;101757.69;4972995;28;97771;-29
2023/05/07 07:58:59;;;;;;;11.07;6.25;;;;;;;16.38;89.85;101760.53;4972745;28;96653;-29
2023/05/07 08:01:24;;;;;;;11.30;6.03;;;;;;;16.42;89.56;101764.81;4972537;28;96815;-31
2023/05/07 08:03:50;;;;;;;9.02;6.10;;;;;;;16.39;90.41;101762.28;4972556;28;99949;-30
2023/05/07 08:06:15;;;;;;;13.45;6.40;;;;;;;16.48;89.57;101760.75;4972682;28;97144;-30
2023/05/07 08:08:40;;;;;;;9.52;6.35;;;;;;;16.64;89.92;101758.66;4973006;28;96514;-30
2023/05/07 08:11:06;;;;;;;11.18;6.90;;;;;;;16.75;89.44;101760.59;4973284;28;96749;-31
2023/05/07 08:13:31;;;;;;;9.50;6.32;;;;;;;16.87;88.88;101757.00;4972636;28;97840;-29
2023/05/07 08:15:57;;;;;;;12.00;7.22;;;;;;;16.95;88.35;101762.81;4972342;28;98108;-30
2023/05/07 08:18:24;;;;;;;12.95;7.32;;;;;;;17.13;87.85;101763.28;4972281;28;97095;-30
2023/05/07 08:20:50;;;;;;;9.55;6.07;;;;;;;17.34;88.86;101771.75;4972592;28;96759;-29
2023/05/07 08:23:15;;;;;;;13.00;7.65;;;;;;;17.45;86.48;101762.72;4971608;28;99573;-30
2023/05/07 08:25:42;;;;;;;13.43;7.75;;;;;;;17.71;86.21;101776.28;4971678;28;97813;-29
2023/05/07 08:28:07;;;;;;;11.93;7.72;;;;;;;17.91;85.51;101780.28;4972050;28;96769;-29
2023/05/07 08:30:33;;;;;;;18.20;7.18;;;;;;;17.98;85.46;101779.66;4972673;28;96757;-29
2023/05/07 08:32:58;;;;;;;10.85;7.25;;;;;;;18.17;84.32;101779.09;4972411;28;97996;-30
2023/05/07 08:35:25;;;;;;;9.93;6.57;;;;;;;18.23;83.96;101775.88;4972475;28;102705;-30
2023/05/07 08:37:50;;;;;;;9.77;6.55;;;;;;;18.46;83.51;101776.78;4972354;28;96485;-29
2023/05/07 08:40:16;;;;;;;10.93;6.82;;;;;;;18.76;82.78;101774.41;4972422;28;96771;-29
2023/05/07 08:42:43;;;;;;;10.20;6.97;;;;;;;18.84;81.67;101771.97;4971834;28;97525;-29
2023/05/07 08:45:12;;;;;;;13.60;6.95;;;;;;;19.03;80.94;101774.94;4970669;28;101353;-29
2023/05/07 08:47:50;;;;;;;10.88;6.88;;;;;;;19.18;80.26;101780.16;4972196;28;96642;-30
2023/05/07 08:50:15;;;;;;;9.38;5.82;;;;;;;19.31;79.61;101776.25;4972695;28;96581;-30
2023/05/07 08:52:41;;;;;;;10.80;5.97;;;;;;;19.30;78.66;101777.25;4972149;28;97779;-32
2023/05/07 08:55:07;;;;;;;10.57;6.22;;;;;;;19.31;78.28;101778.16;4972150;28;98418;-30
2023/05/07 08:57:32;;;;;;;7.20;5.18;;;;;;;19.29;78.84;101788.38;4970643;28;98080;-30
2023/05/07 08:59:58;;;;;;;7.57;4.93;;;;;;;19.28;78.54;101790.28;4972395;28;96882;-29
2023/05/07 09:02:23;;;;;;;11.23;5.90;;;;;;;19.29;78.16;101775.50;4971835;28;99273;-31
2023/05/07 09:04:49;;;;;;;12.27;5.63;;;;;;;19.29;78.43;101782.91;4971769;28;99332;-30
2023/05/07 09:07:14;;;;;;;8.88;5.78;;;;;;;19.29;78.46;101777.41;4971498;28;96607;-30
2023/05/07 09:09:39;;;;;;;10.55;6.50;;;;;;;19.37;77.97;101785.84;4971912;28;96866;-30
2023/05/07 09:12:05;;;;;;;8.43;5.40;;;;;;;19.38;78.45;101784.88;4971668;28;98751;-30
2023/05/07 09:14:30;;;;;;;9.90;6.07;;;;;;;19.37;78.52;101788.59;4971845;28;97777;-29
2023/05/07 09:16:56;;;;;;;6.82;5.18;;;;;;;19.37;77.93;101787.75;4972164;28;96812;-30
2023/05/07 09:19:23;;;;;;;8.48;5.93;;;;;;;19.38;77.18;101784.88;4971750;28;96892;-29
2023/05/07 09:21:49;;;;;;;9.52;5.35;;;;;;;19.44;78.06;101791.72;4971531;28;99343;-30
2023/05/07 09:24:15;;;;;;;7.72;4.53;;;;;;;19.46;76.56;101790.59;4971655;28;97829;-29
2023/05/07 09:26:41;;;;;;;8.57;5.22;;;;;;;19.42;76.65;101782.72;4970213;28;96695;-30
2023/05/07 09:29:09;;;;;;;9.57;5.28;;;;;;;19.35;76.90;101790.59;4971954;28;96782;-30
2023/05/07 09:31:38;;;;;;;8.48;5.28;;;;;;;19.28;77.44;101794.88;4969673;28;100993;-29
2023/05/07 09:34:05;;;;;;;10.65;5.90;;;;;;;19.17;76.84;101804.00;4971302;28;99328;-30
2023/05/07 09:36:31;;;;;;;7.80;4.90;;;;;;;19.20;76.90;101790.00;4972394;28;96479;-29
2023/05/07 09:38:59;;;;;;;6.60;4.20;;;;;;;19.43;76.39;101787.25;4973684;28;96864;-29
2023/05/07 09:41:26;;;;;;;7.82;4.75;;;;;;;19.64;76.15;101790.00;4973425;28;100964;-30
2023/05/07 09:43:54;;;;;;;6.63;4.10;;;;;;;19.78;73.54;101792.50;4974766;28;99410;-30
2023/05/07 09:46:25;;;;;;;7.35;4.65;;;;;;;19.97;73.89;101793.66;4973477;28;96632;-29
2023/05/07 09:48:53;;;;;;;7.22;4.28;;;;;;;20.20;74.40;101789.78;4974066;28;96702;-30
2023/05/07 09:51:28;;;;;;;6.70;4.32;;;;;;;20.36;72.58;101790.19;4973283;28;100945;-30
2023/05/07 09:53:54;;;;;;;7.53;4.40;;;;;;;20.59;72.39;101784.56;4973362;28;100806;-29
2023/05/07 09:56:19;;;;;;;7.80;4.00;;;;;;;20.69;71.28;101795.63;4974347;28;96618;-30
2023/05/07 09:58:46;;;;;;;6.05;4.00;;;;;;;20.63;71.71;101786.03;4974894;28;96725;-30
2023/05/07 10:01:12;;;;;;;7.13;4.13;;;;;;;20.65;72.06;101791.41;4973111;28;100961;-30
2023/05/07 10:03:41;;;;;;;7.00;4.28;;;;;;;20.64;72.22;101793.28;4973105;28;101039;-29
2023/05/07 10:06:08;;;;;;;7.05;4.25;;;;;;;20.77;70.96;101799.44;4973143;28;96724;-30
2023/05/07 10:08:35;;;;;;;5.65;3.80;;;;;;;20.63;68.06;101798.94;4974958;28;96820;-30
2023/05/07 10:11:01;;;;;;;5.55;3.28;;;;;;;20.54;69.99;101792.31;4974528;28;98152;-30
2023/05/07 10:13:27;;;;;;;5.35;3.25;;;;;;;20.56;69.14;101782.94;4973357;28;98852;-29
2023/05/07 10:15:53;;;;;;;9.57;3.05;;;;;;;20.65;70.38;101791.41;4974332;28;96575;-29
2023/05/07 10:18:22;;;;;;;5.53;2.95;;;;;;;20.68;69.40;101792.00;4972903;28;96960;-29
2023/05/07 10:20:49;;;;;;;4.63;3.13;;;;;;;20.71;69.69;101796.34;4972026;28;101481;-31
2023/05/07 10:23:23;;;;;;;6.38;3.33;;;;;;;20.66;68.61;101799.50;4972095;28;100809;-29
2023/05/07 10:25:48;;;;;;;7.60;3.70;;;;;;;20.73;69.48;101797.09;4973029;28;96641;-30
2023/05/07 10:28:15;;;;;;;6.88;4.35;;;;;;;20.82;69.96;101788.00;4974503;28;96833;-29
2023/05/07 10:30:49;;;;;;;6.03;4.15;;;;;;;20.98;69.66;101801.28;4973952;28;98059;-29
2023/05/07 10:33:18;;;;;;;5.68;3.95;;;;;;;21.06;69.63;101800.56;4973743;28;97893;-30
2023/05/07 10:35:46;;;;;;;7.82;4.28;;;;;;;21.13;68.76;101805.38;4972579;28;96703;-30
2023/05/07 10:38:12;;;;;;;5.28;3.70;;;;;;;21.20;68.49;101786.41;4973076;28;96808;-29
2023/05/07 10:40:38;;;;;;;7.28;3.92;;;;;;;21.09;67.90;101800.28;4972504;28;100918;-30
2023/05/07 10:43:05;;;;;;;7.65;3.78;;;;;;;20.88;68.47;101795.72;4974105;28;97895;-30
2023/05/07 10:45:31;;;;;;;7.95;3.65;;;;;;;20.69;68.47;101798.38;4972003;28;96911;-31
2023/05/07 10:48:10;;;;;;;7.10;3.30;;;;;;;20.73;68.11;101802.59;4971906;28;97046;-30
2023/05/07 10:50:36;;;;;;;5.82;3.78;;;;;;;20.86;66.14;101797.75;4973749;28;97911;-30
2023/05/07 10:53:21;;;;;;;7.43;3.60;;;;;;;21.03;67.71;101807.22;4972235;28;100844;-30
2023/05/07 10:55:47;;;;;;;7.00;3.85;;;;;;;20.98;67.38;101806.78;4972410;28;96712;-31
2023/05/07 10:58:26;;;;;;;6.03;3.35;;;;;;;21.06;66.12;101814.34;4973573;28;96833;-30
2023/05/07 11:01:00;;;;;;;5.70;3.08;;;;;;;21.11;66.20;101809.28;4972072;28;101293;-30
2023/05/07 11:03:27;;;;;;;7.00;3.58;;;;;;;21.28;66.82;101810.50;4972588;28;101126;-30
2023/05/07 11:06:12;;;;;;;7.70;3.47;;;;;;;21.35;66.49;101815.28;4972247;28;96610;-30
2023/05/07 11:08:57;;;;;;;6.38;3.50;;;;;;;21.27;66.36;101819.78;4972196;28;96871;-30
2023/05/07 11:11:44;;;;;;;6.05;3.08;;;;;;;21.12;64.77;101811.03;4971695;28;101288;-30
2023/05/07 11:14:09;;;;;;;8.55;3.95;;;;;;;21.06;67.35;101814.34;4973308;28;99106;-29
2023/05/07 11:16:36;;;;;;;4.13;3.03;;;;;;;21.04;65.90;101808.97;4973359;28;96548;-30
2023/05/07 11:19:02;;;;;;;9.40;4.07;;;;;;;21.15;66.39;101805.25;4971914;28;97413;-29
2023/05/07 11:21:40;;;;;;;6.13;3.15;;;;;;;21.17;66.17;101815.13;4973556;28;97313;-30
2023/05/07 11:24:07;;;;;;;5.63;3.17;;;;;;;21.24;65.71;101815.44;4971169;28;100845;-31
2023/05/07 11:26:43;;;;;;;6.40;3.60;;;;;;;21.32;65.48;101807.31;4972012;28;96565;-30
2023/05/07 11:29:13;;;;;;;5.25;3.22;;;;;;;21.29;65.02;101807.59;4972206;28;96557;-29
2023/05/07 11:31:39;;;;;;;8.10;3.13;;;;;;;21.38;65.66;101815.03;4971459;28;100771;-30
2023/05/07 11:34:05;;;;;;;5.00;2.90;;;;;;;21.31;65.05;101807.44;4971649;28;100879;-31
2023/05/07 11:36:32;;;;;;;6.00;3.08;;;;;;;21.35;65.30;101812.53;4972783;28;96757;-31
2023/05/07 11:38:57;;;;;;;8.98;3.20;;;;;;;21.33;64.84;101809.06;4971715;28;96912;-32
2023/05/07 11:41:33;;;;;;;6.70;2.90;;;;;;;21.48;65.61;101815.09;4973193;28;97389;-31
2023/05/07 11:43:59;;;;;;;6.95;3.45;;;;;;;21.57;65.96;101811.47;4971464;28;100998;-30
2023/05/07 11:46:25;;;;;;;6.93;3.35;;;;;;;21.49;63.09;101818.72;4971629;28;96721;-30
2023/05/07 11:48:50;;;;;;;5.70;3.15;;;;;;;21.44;65.22;101821.88;4973037;28;96777;-30
2023/05/07 11:51:21;;;;;;;8.63;3.05;;;;;;;21.31;64.51;101808.34;4972868;28;99415;-30
2023/05/07 11:53:46;;;;;;;8.23;2.92;;;;;;;21.29;64.47;101815.00;4971808;28;100878;-29
2023/05/07 11:56:13;;;;;;;5.60;2.80;;;;;;;21.24;65.12;101820.94;4972855;28;96990;-29
2023/05/07 11:58:40;;;;;;;5.35;3.20;;;;;;;21.21;65.63;101813.84;4970782;28;96831;-29
2023/05/07 12:01:09;;;;;;;5.47;3.30;;;;;;;21.26;65.56;101826.28;4970293;28;100977;-30
2023/05/07 12:03:37;;;;;;;6.95;2.58;;;;;;;21.19;65.75;101826.88;4971243;28;99794;-30
2023/05/07 12:06:05;;;;;;;4.97;2.83;;;;;;;21.14;65.36;101818.16;4971442;28;96616;-30
2023/05/07 12:08:30;;;;;;;5.47;2.90;;;;;;;21.09;65.38;101819.56;4971374;28;96825;-30
2023/05/07 12:10:56;;;;;;;5.93;2.78;;;;;;;21.02;65.61;101827.50;4972811;28;97422;-30
2023/05/07 12:13:24;;;;;;;5.65;2.55;;;;;;;20.98;65.89;101821.41;4972178;28;99193;-30
2023/05/07 12:15:54;;;;;;;4.82;2.88;;;;;;;20.80;63.15;101828.56;4971295;28;96664;-30
2023/05/07 12:18:21;;;;;;;4.28;2.85;;;;;;;20.75;65.68;101822.59;4971687;28;96889;-30
2023/05/07 12:20:47;;;;;;;5.35;2.60;;;;;;;20.79;65.97;101824.97;4971078;28;100682;-30
2023/05/07 12:23:13;;;;;;;4.18;2.08;;;;;;;20.73;65.59;101825.50;4970665;28;101409;-30
2023/05/07 12:25:41;;;;;;;5.72;2.40;;;;;;;20.70;65.84;101831.28;4970756;28;96886;-30
2023/05/07 12:28:07;;;;;;;5.40;2.55;;;;;;;20.73;66.33;101822.72;4971114;28;96906;-30
2023/05/07 12:30:39;;;;;;;4.68;2.30;;;;;;;20.71;66.21;101823.88;4970883;28;100786;-31
2023/05/07 12:33:05;;;;;;;4.32;2.45;;;;;;;20.65;66.39;101822.56;4970935;28;101365;-30
2023/05/07 12:35:32;;;;;;;7.03;2.65;;;;;;;20.61;66.53;101821.06;4972319;28;96769;-30
2023/05/07 12:37:59;;;;;;;4.20;2.42;;;;;;;20.62;66.30;101824.69;4971099;28;96898;-30
2023/05/07 12:40:38;;;;;;;7.38;2.97;;;;;;;20.56;66.21;101821.50;4970590;28;99399;-30
2023/05/07 12:43:04;;;;;;;5.55;2.97;;;;;;;20.50;66.72;101826.66;4972394;28;99442;-30
2023/05/07 12:45:29;;;;;;;5.30;3.10;;;;;;;20.45;66.54;101837.16;4972349;28;96521;-30
2023/05/07 12:47:55;;;;;;;4.38;2.95;;;;;;;20.39;66.85;101843.22;4972407;28;96711;-30
2023/05/07 12:50:23;;;;;;;5.45;3.30;;;;;;;20.35;65.56;101840.75;4971715;28;97490;-30
2023/05/07 12:52:48;;;;;;;5.70;3.38;;;;;;;20.31;66.59;101853.03;4970446;28;98888;-31
2023/05/07 12:55:15;;;;;;;7.18;3.85;;;;;;;20.28;66.74;101847.78;4972222;28;96555;-31
2023/05/07 12:58:01;;;;;;;6.85;3.90;;;;;;;20.29;66.89;101856.91;4970707;28;96893;-30
2023/05/07 13:00:37;;;;;;;8.63;4.15;;;;;;;20.12;66.96;101855.63;4970434;28;101145;-30
2023/05/07 13:03:03;;;;;;;10.73;4.93;;;;;;;19.97;67.63;101851.44;4970389;28;101251;-30
2023/05/07 13:05:29;;;;;;;10.05;4.75;;;;;;;20.00;68.33;101854.81;4970693;28;96626;-30
2023/05/07 13:07:55;;;;;;;7.88;4.50;;;;;;;19.94;68.33;101856.19;4972635;28;96796;-31
2023/05/07 13:10:21;;;;;;;10.25;4.40;;;;;;;19.93;68.35;101859.94;4971047;28;100884;-30
2023/05/07 13:12:47;;;;;;;7.00;4.53;;;;;;;19.81;68.29;101860.13;4973992;28;101292;-30
2023/05/07 13:15:12;;;;;;;6.95;3.90;;;;;;;19.76;68.82;101851.38;4974657;28;102272;-30
2023/05/07 13:17:37;;;;;;;7.78;4.57;;;;;;;19.72;69.41;101859.03;4975253;28;102488;-30
2023/05/07 13:20:03;;;;;;;5.80;3.85;;;;;;;19.72;69.54;101859.03;4975402;28;97725;-30
2023/05/07 13:22:28;;;;;;;7.47;4.18;;;;;;;19.70;69.93;101861.03;4974978;28;99339;-31
2023/05/07 13:24:54;;;;;;;8.52;5.03;;;;;;;19.60;70.21;101860.88;4974788;28;99929;-30
2023/05/07 13:27:20;;;;;;;11.25;5.05;;;;;;;19.63;70.98;101868.00;4975268;28;96945;-31
2023/05/07 13:29:45;;;;;;;12.40;5.10;;;;;;;19.59;71.31;101866.50;4975027;28;99694;-30
2023/05/07 13:32:10;;;;;;;9.57;5.13;;;;;;;19.53;71.24;101863.28;4974872;28;115301;-30
2023/05/07 13:34:36;;;;;;;9.55;4.60;;;;;;;19.51;72.34;101868.00;4973385;28;96805;-30
2023/05/07 13:37:02;;;;;;;7.30;4.07;;;;;;;19.39;73.24;101874.53;4975098;28;96819;-30
2023/05/07 13:39:27;;;;;;;8.65;4.22;;;;;;;19.26;74.22;101871.94;4974156;28;106250;-31
2023/05/07 13:41:52;;;;;;;7.43;4.00;;;;;;;19.12;74.99;101877.69;4975091;28;97791;-30
2023/05/07 13:44:18;;;;;;;8.60;5.25;;;;;;;19.13;74.47;101878.56;4974888;28;96636;-31
2023/05/07 13:46:43;;;;;;;9.07;5.10;;;;;;;19.18;74.41;101871.66;4975032;28;96821;-30
2023/05/07 13:49:10;;;;;;;9.07;4.93;;;;;;;19.26;74.08;101877.44;4974306;28;108118;-30
2023/05/07 13:51:36;;;;;;;7.00;3.97;;;;;;;19.29;74.18;101877.16;4974601;28;99204;-30
2023/05/07 13:54:01;;;;;;;9.43;4.50;;;;;;;19.31;74.15;101888.03;4974913;28;96716;-30
2023/05/07 13:56:28;;;;;;;8.98;5.00;;;;;;;19.31;74.39;101885.28;4975168;28;99080;-30
2023/05/07 13:58:53;;;;;;;11.10;5.43;;;;;;;19.24;74.25;101881.31;4974624;28;97629;-31
2023/05/07 14:01:18;;;;;;;11.00;5.10;;;;;;;19.25;74.41;101894.03;4974511;28;97826;-30
2023/05/07 14:03:44;;;;;;;8.50;5.30;;;;;;;19.23;75.04;101896.88;4974152;28;96909;-30
2023/05/07 14:06:09;;;;;;;9.00;5.22;;;;;;;19.17;75.06;101896.53;4974824;28;96759;-30
2023/05/07 14:08:35;;;;;;;11.20;5.20;;;;;;;19.19;74.65;101900.91;4974674;28;97416;-30
2023/05/07 14:11:00;;;;;;;14.27;6.00;;;;;;;19.20;75.06;101905.38;4973847;28;117415;-30
2023/05/07 14:13:26;;;;;;;12.27;5.43;;;;;;;19.15;75.19;101904.91;4974608;28;96660;-31
2023/05/07 14:15:51;;;;;;;11.70;5.75;;;;;;;19.19;75.31;101903.66;4974409;28;97428;-29
2023/05/07 14:18:17;;;;;;;14.13;4.78;;;;;;;19.18;75.03;101901.88;4974089;28;97434;-30
2023/05/07 14:20:46;;;;;;;8.25;5.10;;;;;;;19.13;75.23;101895.91;4974838;28;97870;-31
2023/05/07 14:23:11;;;;;;;8.18;5.20;;;;;;;19.17;75.11;101902.91;4971507;28;96772;-30
2023/05/07 14:25:37;;;;;;;8.32;5.05;;;;;;;19.15;75.22;101910.38;4974668;28;96822;-30
2023/05/07 14:28:02;;;;;;;10.48;5.88;;;;;;;19.16;74.97;101911.25;4973782;28;97355;-30
2023/05/07 14:30:27;;;;;;;9.77;6.10;;;;;;;19.14;75.00;101908.66;4973956;28;97783;-30
2023/05/07 14:32:53;;;;;;;11.70;5.03;;;;;;;19.14;75.26;101908.66;4973814;28;96703;-30
2023/05/07 14:35:18;;;;;;;11.80;5.55;;;;;;;19.11;75.06;101908.88;4973817;28;107890;-31
2023/05/07 14:37:43;;;;;;;10.05;5.50;;;;;;;19.14;75.37;101913.25;4974033;28;97914;-30
2023/05/07 14:40:09;;;;;;;8.07;4.65;;;;;;;19.15;75.04;101906.78;4973853;28;97385;-30
2023/05/07 14:42:34;;;;;;;10.13;5.22;;;;;;;19.16;75.12;101901.13;4973898;28;96635;-30
2023/05/07 14:45:00;;;;;;;8.88;4.82;;;;;;;19.17;75.11;101902.91;4974094;28;96886;-30
2023/05/07 14:47:25;;;;;;;8.88;5.10;;;;;;;19.17;75.27;101899.28;4973811;28;97519;-30
2023/05/07 14:49:51;;;;;;;6.97;5.00;;;;;;;19.17;75.83;101913.03;4973555;28;98343;-31
2023/05/07 14:52:16;;;;;;;13.10;5.18;;;;;;;19.13;75.63;101911.50;4972031;28;97466;-32
2023/05/07 14:54:41;;;;;;;10.63;5.38;;;;;;;19.09;75.69;101897.13;4973880;28;96800;-30
2023/05/07 14:57:10;;;;;;;10.75;6.20;;;;;;;19.13;75.86;101906.03;4972556;28;100716;-30
2023/05/07 14:59:37;;;;;;;11.63;5.97;;;;;;;19.15;75.79;101887.53;4972331;28;100943;-30
2023/05/07 15:02:02;;;;;;;12.05;5.65;;;;;;;19.16;75.92;101901.13;4971969;28;96972;-30
2023/05/07 15:04:28;;;;;;;11.07;5.63;;;;;;;19.21;76.61;101907.16;4973483;28;96844;-30
2023/05/07 15:06:53;;;;;;;12.27;6.00;;;;;;;19.16;76.21;101900.25;4973711;28;98012;-30
2023/05/07 15:09:19;;;;;;;11.85;5.13;;;;;;;19.18;76.17;101906.50;4973649;28;99533;-30
2023/05/07 15:11:44;;;;;;;9.10;4.63;;;;;;;19.20;76.22;101896.28;4973508;28;96832;-30
2023/05/07 15:14:10;;;;;;;9.52;5.30;;;;;;;19.19;76.08;101900.03;4973454;28;96922;-30
2023/05/07 15:16:35;;;;;;;11.95;5.00;;;;;;;19.18;76.31;101907.38;4972281;28;97884;-30
2023/05/07 15:19:02;;;;;;;8.05;4.57;;;;;;;19.15;76.56;101915.00;4973299;28;97549;-31
2023/05/07 15:21:27;;;;;;;8.05;4.93;;;;;;;19.14;76.42;101918.75;4973537;28;96664;-31
2023/05/07 15:23:53;;;;;;;8.52;5.30;;;;;;;19.16;76.16;101922.25;4972084;28;96830;-30
2023/05/07 15:26:18;;;;;;;7.13;4.40;;;;;;;19.09;76.71;101925.50;4973326;28;97966;-30
2023/05/07 15:28:43;;;;;;;8.25;4.63;;;;;;;19.08;76.83;101929.22;4973214;28;99321;-32
2023/05/07 15:31:09;;;;;;;10.70;5.05;;;;;;;19.06;76.92;101924.84;4972289;28;114455;-30
2023/05/07 15:33:34;;;;;;;8.15;4.55;;;;;;;19.03;77.28;101927.84;4973688;28;96742;-30
2023/05/07 15:36:00;;;;;;;8.25;4.97;;;;;;;19.03;76.90;101933.34;4973100;28;97930;-30
2023/05/07 15:38:28;;;;;;;10.13;5.45;;;;;;;19.01;77.58;101938.09;4972922;28;99548;-30
2023/05/07 15:40:54;;;;;;;9.90;5.57;;;;;;;18.98;77.35;101930.09;4972514;28;96788;-32
2023/05/07 15:43:20;;;;;;;10.10;5.10;;;;;;;19.02;77.77;101935.22;4973020;28;96867;-32